Kortcamp, Illinois
Current Conditions -  °F | °C
As of 4:15 AM on Thursday 23 Oct 2014 (Local Time) from K3LF Reporting Station
Clear Clear  
Wind Chill: 36°   Ceiling: Unl
Heat Index: 41°   Visibility: 10mi
Dew Point: 37°   Wind: 8mph
Humidity: 85%   Direction: 130°SE
Pressure: 30.2"   Gusts: NA
Location:  39.1415°N, 89.5029°W
Report Text: K3LF 230915Z AUTO 13007KT 10SM CLR 05/03 A3020 RMK AO2 T00500027
Loading
Personal Weather Stations






























Interactive Weather Map
Tropical Storm Tracking
New forecast layout! Learn more

10-Day Weather Forecast

Advertisements
Track Severe Weather on mobile